Huntingburg (HNB)

 

Airport Diagram
No Airport Diagram Available
Current Weather/Forecast (VFR Conditions)
METAR KHNB 182256Z AUTO 29007KT 10SM -RA OVC065 13/07 A2991 RMK AO2 RAB06 SLP131 P0000 T01330072
TAF KHNB 181720Z 1818/1918 24005KT P6SM BKN050 FM182200 28004KT P6SM VCSH BKN050 FM190500 VRB04KT P6SM BKN100 FM191200 26004KT P6SM FEW250

Airport Information

All Charts
General
Chart Name View
TAKEOFF MINIMUMS
ALTERNATE MINIMUMS
TAKEOFF MINIMUMS
ALTERNATE MINIMUMS

Approaches
Chart Name Download
RNAV (GPS) RWY 09
RNAV (GPS) RWY 27
RNAV (GPS) RWY 09
RNAV (GPS) RWY 27


Airport Statistics
Departures Arrivals Local
All Collected Stats since June 2016: 6 3 0
2021 Stats: 0 0 0
April Stats: 0 0 0

Inbound Traffic (Arrivals) - 0

No inbound traffic.


Outbound Traffic (Departures) - 0

No outbound traffic.


Local Traffic (Pattern) - 0

No local traffic.